Philadelphia, Pennsylvania
Traffic Map
Current Weather Conditions
Philadelphia, Pennsylvania
Overcast
Overcast
53°
Feels Like: 53°
Wind Chill: 53° Ceiling: 3000
Heat Index: 53° Visibility: 10mi
Dew Point: 45° Wind: 16mph
Humidity: 74% Direction: 330° (NNW)
Pressure: 29.75in Gusts: 29mph
Raw Report DataKPHL 230754Z 33014G25KT 10SM BKN030 BKN042 OVC060 12/07 A2975 RMK AO2 PK WND 33026/0655 SLP072 T01170072 $
Traffic Incident Summary
Active as of:
Severity:
Category:
InformationThere was an issue retrieving the traffic information for this location. Please try a different location or try again shortly.
Advertisements
Track Severe Weather on mobile